createdAt,value
2022-08-24T00:00:19.589Z,100225.80
2022-08-24T00:02:47.256Z,100228.48
2022-08-24T00:05:15.065Z,100229.72
2022-08-24T00:07:42.179Z,100232.51
2022-08-24T00:10:10.859Z,100236.01
2022-08-24T00:12:37.843Z,100237.38
2022-08-24T00:15:06.088Z,100237.64
2022-08-24T00:17:34.472Z,100241.86
2022-08-24T00:20:01.525Z,100244.38
2022-08-24T00:22:29.194Z,100242.91
2022-08-24T00:24:57.164Z,100240.34
2022-08-24T00:27:24.929Z,100238.67
2022-08-24T00:29:51.878Z,100238.27
2022-08-24T00:32:18.827Z,100237.09
2022-08-24T00:34:58.390Z,100240.78
2022-08-24T00:37:28.721Z,100240.46
2022-08-24T00:39:57.463Z,100241.36
2022-08-24T00:42:25.066Z,100243.30
2022-08-24T00:44:52.426Z,100242.94
2022-08-24T00:47:25.412Z,100242.59
2022-08-24T00:50:14.337Z,100243.86
2022-08-24T00:52:44.499Z,100246.67
2022-08-24T00:55:17.696Z,100248.56
2022-08-24T00:57:45.975Z,100251.42
2022-08-24T01:00:18.149Z,100254.05
2022-08-24T01:02:47.678Z,100258.52
2022-08-24T01:05:15.800Z,100257.88
2022-08-24T01:07:42.894Z,100257.27
2022-08-24T01:10:16.394Z,100265.44
2022-08-24T01:12:52.223Z,100266.42
2022-08-24T01:15:29.702Z,100261.97
2022-08-24T01:18:15.857Z,100264.11
2022-08-24T01:20:45.266Z,100264.08
2022-08-24T01:23:15.061Z,100264.72
2022-08-24T01:25:42.914Z,100264.48
2022-08-24T01:28:15.303Z,100261.91
2022-08-24T01:30:42.796Z,100260.70
2022-08-24T01:33:09.831Z,100263.46
2022-08-24T01:35:38.541Z,100263.32
2022-08-24T01:38:08.160Z,100264.92
2022-08-24T01:40:41.255Z,100268.66
2022-08-24T01:43:08.206Z,100269.50
2022-08-24T01:45:35.260Z,100271.30
2022-08-24T01:48:03.382Z,100270.01
2022-08-24T01:50:31.855Z,100271.64
2022-08-24T01:53:05.267Z,100271.79
2022-08-24T01:55:32.808Z,100274.13
2022-08-24T01:58:00.475Z,100274.45
2022-08-24T02:00:28.111Z,100273.90
2022-08-24T02:02:57.087Z,100275.31
2022-08-24T02:05:24.975Z,100274.42
2022-08-24T02:07:52.230Z,100274.02
2022-08-24T02:10:19.289Z,100272.86
2022-08-24T02:12:58.103Z,100275.36
2022-08-24T02:15:30.109Z,100274.45
2022-08-24T02:17:57.547Z,100276.63
2022-08-24T02:20:24.424Z,100281.02
2022-08-24T02:22:51.549Z,100284.37
2022-08-24T02:25:18.704Z,100292.35
2022-08-24T02:27:46.164Z,100290.42
2022-08-24T02:30:13.420Z,100290.92
2022-08-24T02:32:42.930Z,100292.70
2022-08-24T02:35:10.191Z,100296.34
2022-08-24T02:37:43.340Z,100295.81
2022-08-24T02:40:11.400Z,100298.77
2022-08-24T02:42:39.033Z,100298.64
2022-08-24T02:45:07.069Z,100301.04
2022-08-24T02:47:38.862Z,100302.67
2022-08-24T02:50:08.099Z,100299.52
2022-08-24T02:52:36.452Z,100300.32
2022-08-24T02:55:05.141Z,100297.72
2022-08-24T02:57:32.204Z,100298.97
2022-08-24T03:00:00.084Z,100303.70
2022-08-24T03:02:27.310Z,100307.20
2022-08-24T03:04:54.380Z,100310.92
2022-08-24T03:07:21.327Z,100303.88
2022-08-24T03:09:48.894Z,100302.39
2022-08-24T03:12:15.848Z,100301.58
2022-08-24T03:14:42.792Z,100293.91
2022-08-24T03:17:10.240Z,100295.14
2022-08-24T03:19:37.196Z,100293.11
2022-08-24T03:22:04.686Z,100289.78
2022-08-24T03:24:31.707Z,100294.39
2022-08-24T03:26:59.495Z,100291.44
2022-08-24T03:29:26.724Z,100288.12
2022-08-24T03:31:53.673Z,100290.23
2022-08-24T03:34:21.237Z,100289.05
2022-08-24T03:36:48.107Z,100285.92
2022-08-24T03:39:16.351Z,100286.33
2022-08-24T03:41:43.400Z,100289.46
2022-08-24T03:44:11.483Z,100288.17
2022-08-24T03:46:38.622Z,100287.77
2022-08-24T03:49:08.605Z,100289.33
2022-08-24T03:51:35.992Z,100290.58
2022-08-24T03:54:03.346Z,100290.30
2022-08-24T03:56:30.838Z,100294.39
2022-08-24T03:58:58.267Z,100296.88
2022-08-24T04:01:25.177Z,100297.15
2022-08-24T04:03:54.313Z,100297.05
2022-08-24T04:06:21.712Z,100297.20
2022-08-24T04:08:48.723Z,100299.58
2022-08-24T04:11:18.147Z,100301.11
2022-08-24T04:13:46.103Z,100303.54
2022-08-24T04:16:14.512Z,100305.89
2022-08-24T04:18:41.688Z,100305.27
2022-08-24T04:21:16.762Z,100307.48
2022-08-24T04:23:46.780Z,100303.17
2022-08-24T04:26:16.673Z,100300.37
2022-08-24T04:29:04.279Z,100300.05
2022-08-24T04:31:37.384Z,100299.91
2022-08-24T04:34:05.008Z,100299.45
2022-08-24T04:36:32.979Z,100300.27
2022-08-24T04:39:01.106Z,100300.36
2022-08-24T04:41:30.962Z,100301.91
2022-08-24T04:43:59.616Z,100304.91
2022-08-24T04:46:27.033Z,100300.77
2022-08-24T04:48:54.083Z,100301.02
2022-08-24T04:51:21.340Z,100305.73
2022-08-24T04:53:50.725Z,100302.52
2022-08-24T04:56:24.074Z,100299.23
2022-08-24T04:58:52.136Z,100297.89
2022-08-24T05:01:21.696Z,100298.23
2022-08-24T05:03:50.491Z,100300.80
2022-08-24T05:06:19.227Z,100299.08
2022-08-24T05:08:47.650Z,100298.47
2022-08-24T05:11:16.002Z,100293.19
2022-08-24T05:13:43.259Z,100297.58
2022-08-24T05:16:15.575Z,100297.70
2022-08-24T05:18:42.789Z,100294.41
2022-08-24T05:21:11.168Z,100295.25
2022-08-24T05:23:40.173Z,100291.25
2022-08-24T05:26:12.741Z,100296.92
2022-08-24T05:28:39.892Z,100300.14
2022-08-24T05:31:12.005Z,100297.48
2022-08-24T05:33:39.213Z,100294.45
2022-08-24T05:36:07.570Z,100298.08
2022-08-24T05:38:35.146Z,100298.36
2022-08-24T05:41:05.814Z,100301.16
2022-08-24T05:43:32.827Z,100303.27
2022-08-24T05:45:59.777Z,100301.89
2022-08-24T05:48:27.543Z,100294.59
2022-08-24T05:50:55.715Z,100299.70
2022-08-24T05:53:22.593Z,100304.02
2022-08-24T05:55:49.914Z,100304.84
2022-08-24T05:58:23.056Z,100309.98
2022-08-24T06:01:00.179Z,100312.19
2022-08-24T06:03:27.548Z,100313.86
2022-08-24T06:05:55.233Z,100313.77
2022-08-24T06:08:22.126Z,100318.11
2022-08-24T06:10:49.207Z,100318.38
2022-08-24T06:13:18.026Z,100319.67
2022-08-24T06:15:59.419Z,100322.85
2022-08-24T06:18:32.466Z,100323.89
2022-08-24T06:21:04.772Z,100326.98
2022-08-24T06:23:32.401Z,100327.69
2022-08-24T06:26:22.962Z,100329.48
2022-08-24T06:28:50.461Z,100327.35
2022-08-24T06:31:17.348Z,100326.86
2022-08-24T06:33:44.463Z,100329.64
2022-08-24T06:36:12.849Z,100326.79
2022-08-24T06:38:39.902Z,100324.02
2022-08-24T06:41:07.778Z,100320.35
2022-08-24T06:43:34.925Z,100320.41
2022-08-24T06:46:02.031Z,100318.36
2022-08-24T06:48:31.386Z,100320.67
2022-08-24T06:50:59.253Z,100322.92
2022-08-24T06:53:26.513Z,100326.09
2022-08-24T06:55:57.093Z,100327.92
2022-08-24T06:58:25.426Z,100330.05
2022-08-24T07:00:52.887Z,100333.08
2022-08-24T07:03:21.246Z,100328.81
2022-08-24T07:05:56.442Z,100329.86
2022-08-24T07:08:23.769Z,100329.38
2022-08-24T07:10:51.745Z,100327.20
2022-08-24T07:13:19.310Z,100322.72
2022-08-24T07:15:46.548Z,100315.85
2022-08-24T07:18:16.969Z,100317.63
2022-08-24T07:20:44.047Z,100318.15
2022-08-24T07:23:15.506Z,100316.31
2022-08-24T07:25:47.550Z,100312.83
2022-08-24T07:28:17.385Z,100315.61
2022-08-24T07:30:55.018Z,100318.84
2022-08-24T07:33:22.241Z,100324.94
2022-08-24T07:35:49.737Z,100327.55
2022-08-24T07:38:17.777Z,100324.61
2022-08-24T07:41:09.297Z,100327.52
2022-08-24T07:43:33.274Z,100328.14
2022-08-24T07:46:00.993Z,100326.04
2022-08-24T07:48:28.916Z,100323.64
2022-08-24T07:50:56.376Z,100323.13
2022-08-24T07:53:27.855Z,100324.96
2022-08-24T07:55:59.224Z,100322.30
2022-08-24T07:58:26.116Z,100317.17
2022-08-24T08:00:53.677Z,100318.30
2022-08-24T08:03:22.256Z,100318.83
2022-08-24T08:05:49.918Z,100319.58
2022-08-24T08:08:16.897Z,100318.59
2022-08-24T08:10:44.009Z,100324.63
2022-08-24T08:13:12.188Z,100324.95
2022-08-24T08:15:39.102Z,100325.48
2022-08-24T08:18:06.286Z,100327.08
2022-08-24T08:20:33.942Z,100328.08
2022-08-24T08:23:19.882Z,100330.32
2022-08-24T08:25:52.437Z,100330.31
2022-08-24T08:28:25.763Z,100334.52
2022-08-24T08:30:54.089Z,100330.54
2022-08-24T08:33:21.120Z,100329.51
2022-08-24T08:35:48.929Z,100326.27
2022-08-24T08:38:16.081Z,100327.41
2022-08-24T08:40:55.728Z,100326.52
2022-08-24T08:43:44.896Z,100323.73
2022-08-24T08:46:36.422Z,100321.38
2022-08-24T08:49:19.649Z,100317.77
2022-08-24T08:52:25.000Z,100322.86
2022-08-24T08:55:00.304Z,100321.02
2022-08-24T08:57:46.035Z,100317.16
2022-08-24T09:00:18.687Z,100317.34
2022-08-24T09:03:14.439Z,100314.95
2022-08-24T09:05:59.411Z,100313.38
2022-08-24T09:08:32.433Z,100313.38
2022-08-24T09:11:19.214Z,100309.17
2022-08-24T09:14:02.081Z,100309.69
2022-08-24T09:16:46.306Z,100306.11
2022-08-24T09:19:49.785Z,100305.43
2022-08-24T09:22:20.624Z,100303.98
2022-08-24T09:24:53.988Z,100300.31
2022-08-24T09:27:42.977Z,100299.02
2022-08-24T09:30:11.658Z,100295.23
2022-08-24T09:33:27.148Z,100295.00
2022-08-24T09:36:09.119Z,100299.79
2022-08-24T09:38:55.024Z,100298.46
2022-08-24T09:41:40.708Z,100292.48
2022-08-24T09:44:31.618Z,100294.02
2022-08-24T09:46:58.554Z,100295.25
2022-08-24T09:50:39.741Z,100295.13
2022-08-24T09:53:56.037Z,100295.04
2022-08-24T09:56:37.521Z,100298.78
2022-08-24T09:59:17.995Z,100293.35
2022-08-24T10:02:17.097Z,100293.27
2022-08-24T10:05:09.530Z,100293.27
2022-08-24T10:07:58.833Z,100294.27
2022-08-24T10:10:50.543Z,100292.00
2022-08-24T10:13:26.703Z,100292.27
2022-08-24T10:16:26.327Z,100292.21
2022-08-24T10:19:16.473Z,100286.98
2022-08-24T10:22:11.162Z,100290.00
2022-08-24T10:24:53.883Z,100293.65
2022-08-24T10:27:26.526Z,100295.63
2022-08-24T10:30:23.795Z,100296.77
2022-08-24T10:33:11.031Z,100299.36
2022-08-24T10:36:09.000Z,100297.48
2022-08-24T10:39:16.603Z,100292.02
2022-08-24T10:42:38.017Z,100293.14
2022-08-24T10:45:24.441Z,100290.44
2022-08-24T10:48:30.299Z,100288.19
2022-08-24T10:51:25.571Z,100285.31
2022-08-24T10:53:53.595Z,100284.59
2022-08-24T10:56:41.914Z,100283.95
2022-08-24T10:59:39.044Z,100288.92
2022-08-24T11:02:13.256Z,100290.10
2022-08-24T11:04:40.398Z,100287.66
2022-08-24T11:07:22.033Z,100285.49
2022-08-24T11:09:51.950Z,100279.10
2022-08-24T11:12:24.453Z,100281.30
2022-08-24T11:14:51.497Z,100280.75
2022-08-24T11:17:23.545Z,100275.80
2022-08-24T11:19:51.207Z,100275.02
2022-08-24T11:22:36.887Z,100272.55
2022-08-24T11:25:10.765Z,100267.83
2022-08-24T11:27:40.006Z,100266.61
2022-08-24T11:30:20.472Z,100266.07
2022-08-24T11:32:51.207Z,100263.46
2022-08-24T11:35:25.141Z,100264.62
2022-08-24T11:37:55.345Z,100261.80
2022-08-24T11:40:27.142Z,100256.77
2022-08-24T11:43:48.737Z,100256.60
2022-08-24T11:46:24.019Z,100255.81
2022-08-24T11:49:00.344Z,100247.19
2022-08-24T11:51:39.419Z,100247.15
2022-08-24T11:54:32.034Z,100243.17
2022-08-24T11:57:21.828Z,100248.64
2022-08-24T12:00:14.062Z,100242.75
2022-08-24T12:03:06.300Z,100242.63
2022-08-24T12:05:37.496Z,100243.69
2022-08-24T12:08:08.903Z,100248.52
2022-08-24T12:10:45.785Z,100249.13
2022-08-24T12:13:22.281Z,100251.58
2022-08-24T12:16:16.729Z,100248.11
2022-08-24T12:18:51.790Z,100246.83
2022-08-24T12:21:22.260Z,100248.63
2022-08-24T12:23:51.736Z,100247.59
2022-08-24T12:26:49.406Z,100247.02
2022-08-24T12:29:46.870Z,100251.77
2022-08-24T12:32:17.812Z,100253.27
2022-08-24T12:34:51.006Z,100252.12
2022-08-24T12:37:40.207Z,100251.81
2022-08-24T12:40:33.501Z,100249.61
2022-08-24T12:43:07.044Z,100253.61
2022-08-24T12:45:35.123Z,100254.96
2022-08-24T12:48:20.294Z,100255.93
2022-08-24T12:51:00.144Z,100254.50
2022-08-24T12:53:33.664Z,100257.36
2022-08-24T12:56:18.923Z,100259.42
2022-08-24T12:58:54.505Z,100254.37
2022-08-24T13:01:27.983Z,100247.11
2022-08-24T13:04:46.736Z,100242.97
2022-08-24T13:07:19.840Z,100240.31
2022-08-24T13:09:53.490Z,100245.33
2022-08-24T13:12:43.735Z,100241.83
2022-08-24T13:15:24.819Z,100241.37
2022-08-24T13:18:02.490Z,100243.20
2022-08-24T13:20:36.744Z,100243.32
2022-08-24T13:23:14.434Z,100239.25
2022-08-24T13:25:43.072Z,100238.74
2022-08-24T13:28:28.292Z,100241.16
2022-08-24T13:30:58.357Z,100243.39
2022-08-24T13:33:45.617Z,100237.77
2022-08-24T13:36:35.318Z,100230.05
2022-08-24T13:39:21.109Z,100230.20
2022-08-24T13:42:19.938Z,100226.23
2022-08-24T13:44:56.986Z,100225.58
2022-08-24T13:47:47.303Z,100228.36
2022-08-24T13:50:47.003Z,100226.29
2022-08-24T13:53:33.391Z,100224.86
2022-08-24T13:56:29.688Z,100224.39
2022-08-24T13:59:42.645Z,100220.90
2022-08-24T14:02:18.601Z,100215.60
2022-08-24T14:04:49.233Z,100211.06
2022-08-24T14:07:20.664Z,100211.23
2022-08-24T14:09:53.529Z,100209.83
2022-08-24T14:12:30.043Z,100206.41
2022-08-24T14:15:07.415Z,100204.60
2022-08-24T14:18:07.363Z,100203.04
2022-08-24T14:20:40.997Z,100202.73
2022-08-24T14:23:08.124Z,100196.38
2022-08-24T14:25:35.789Z,100199.48
2022-08-24T14:28:24.855Z,100199.50
2022-08-24T14:31:15.224Z,100197.85
2022-08-24T14:34:14.155Z,100197.34
2022-08-24T14:36:57.300Z,100194.93
2022-08-24T14:39:43.679Z,100194.30
2022-08-24T14:42:18.282Z,100198.41
2022-08-24T14:45:21.718Z,100204.33
2022-08-24T14:48:20.818Z,100208.58
2022-08-24T14:50:56.980Z,100207.99
2022-08-24T14:53:27.349Z,100211.92
2022-08-24T14:56:42.524Z,100212.09
2022-08-24T14:59:35.754Z,100210.13
2022-08-24T15:02:29.415Z,100210.51
2022-08-24T15:05:06.144Z,100210.86
2022-08-24T15:07:34.654Z,100212.05
2022-08-24T15:10:10.548Z,100214.06
2022-08-24T15:12:44.562Z,100215.63
2022-08-24T15:15:21.605Z,100219.71
2022-08-24T15:17:59.343Z,100219.31
2022-08-24T15:20:39.354Z,100222.65
2022-08-24T15:23:43.522Z,100221.86
2022-08-24T15:26:39.447Z,100221.11
2022-08-24T15:29:25.437Z,100221.34
2022-08-24T15:32:11.951Z,100228.64
2022-08-24T15:34:53.246Z,100228.38
2022-08-24T15:37:42.226Z,100232.64
2022-08-24T15:40:38.887Z,100233.10
2022-08-24T15:43:12.550Z,100237.76
2022-08-24T15:45:47.963Z,100239.34
2022-08-24T15:48:16.789Z,100239.82
2022-08-24T15:50:47.016Z,100241.89
2022-08-24T15:53:33.723Z,100244.59
2022-08-24T15:56:19.919Z,100248.82
2022-08-24T15:58:47.414Z,100249.34
2022-08-24T16:01:32.974Z,100253.19
2022-08-24T16:04:38.618Z,100259.45
2022-08-24T16:07:05.807Z,100261.80
2022-08-24T16:09:37.995Z,100262.95
2022-08-24T16:12:16.873Z,100267.58
2022-08-24T16:14:48.931Z,100266.58
2022-08-24T16:17:34.328Z,100269.98
2022-08-24T16:20:06.122Z,100273.42
2022-08-24T16:22:38.965Z,100276.39
2022-08-24T16:25:14.993Z,100277.44
2022-08-24T16:28:05.994Z,100280.33
2022-08-24T16:30:56.702Z,100283.38
2022-08-24T16:33:47.567Z,100284.33
2022-08-24T16:36:18.642Z,100286.90
2022-08-24T16:38:47.947Z,100289.86
2022-08-24T16:41:17.265Z,100295.98
2022-08-24T16:43:46.313Z,100298.61
2022-08-24T16:46:15.223Z,100302.89
2022-08-24T16:48:42.256Z,100303.64
2022-08-24T16:51:09.406Z,100304.02
2022-08-24T16:53:37.018Z,100307.77
2022-08-24T16:56:04.626Z,100312.02
2022-08-24T16:58:33.620Z,100316.33
2022-08-24T17:01:01.807Z,100319.23
2022-08-24T17:03:29.148Z,100323.11
2022-08-24T17:05:56.602Z,100323.30
2022-08-24T17:08:24.368Z,100329.30
2022-08-24T17:10:51.823Z,100332.14
2022-08-24T17:13:46.189Z,100331.41
2022-08-24T17:16:07.768Z,100337.86
2022-08-24T17:18:34.979Z,100339.64
2022-08-24T17:21:01.819Z,100341.77
2022-08-24T17:23:29.584Z,100344.52
2022-08-24T17:25:57.176Z,100347.80
2022-08-24T17:28:24.289Z,100346.17
2022-08-24T17:30:51.685Z,100352.58
2022-08-24T17:33:18.804Z,100351.31
2022-08-24T17:35:45.964Z,100347.49
2022-08-24T17:38:13.279Z,100355.45
2022-08-24T17:40:40.595Z,100353.67
2022-08-24T17:43:09.062Z,100355.77
2022-08-24T17:45:36.292Z,100359.45
2022-08-24T17:48:03.940Z,100358.95
2022-08-24T17:50:31.088Z,100366.81
2022-08-24T17:53:00.470Z,100360.65
2022-08-24T17:55:28.454Z,100361.85
2022-08-24T17:57:55.605Z,100364.68
2022-08-24T18:00:23.233Z,100367.61
2022-08-24T18:02:50.459Z,100374.09
2022-08-24T18:05:18.492Z,100369.30
2022-08-24T18:07:53.604Z,100370.01
2022-08-24T18:10:25.100Z,100370.10
2022-08-24T18:12:52.225Z,100371.82
2022-08-24T18:15:19.570Z,100372.85
2022-08-24T18:17:49.668Z,100369.02
2022-08-24T18:20:17.665Z,100373.45
2022-08-24T18:22:45.228Z,100374.00
2022-08-24T18:25:13.302Z,100370.97
2022-08-24T18:27:40.453Z,100368.83
2022-08-24T18:30:09.345Z,100368.23
2022-08-24T18:32:39.768Z,100370.22
2022-08-24T18:35:08.088Z,100369.45
2022-08-24T18:37:34.858Z,100366.52
2022-08-24T18:40:02.209Z,100360.65
2022-08-24T18:42:30.172Z,100357.40
2022-08-24T18:44:58.039Z,100359.30
2022-08-24T18:47:26.694Z,100359.71
2022-08-24T18:49:54.261Z,100362.98
2022-08-24T18:52:21.719Z,100361.15
2022-08-24T18:54:49.900Z,100357.96
2022-08-24T18:57:18.261Z,100359.27
2022-08-24T18:59:45.639Z,100355.05
2022-08-24T19:02:36.206Z,100353.23
2022-08-24T19:05:03.290Z,100352.36
2022-08-24T19:07:32.174Z,100354.98
2022-08-24T19:10:00.198Z,100354.26
2022-08-24T19:12:28.492Z,100354.30
2022-08-24T19:14:57.845Z,100349.04
2022-08-24T19:17:25.064Z,100350.81
2022-08-24T19:19:52.291Z,100354.29
2022-08-24T19:22:19.381Z,100348.45
2022-08-24T19:24:46.694Z,100348.73
2022-08-24T19:27:13.615Z,100346.58
2022-08-24T19:29:55.002Z,100349.73
2022-08-24T19:32:24.990Z,100349.81
2022-08-24T19:34:52.681Z,100344.61
2022-08-24T19:37:19.634Z,100345.56
2022-08-24T19:39:47.897Z,100344.38
2022-08-24T19:42:15.643Z,100342.80
2022-08-24T19:45:01.268Z,100343.71
2022-08-24T19:47:28.724Z,100337.29
2022-08-24T19:49:55.774Z,100335.56
2022-08-24T19:52:22.823Z,100338.49
2022-08-24T19:54:49.772Z,100338.32
2022-08-24T19:57:44.474Z,100338.73
2022-08-24T20:00:17.685Z,100340.20
2022-08-24T20:02:45.954Z,100338.21
2022-08-24T20:05:12.993Z,100340.02
2022-08-24T20:07:46.822Z,100335.92
2022-08-24T20:10:14.785Z,100335.73
2022-08-24T20:12:41.706Z,100335.30
2022-08-24T20:15:09.118Z,100335.75
2022-08-24T20:17:36.279Z,100335.73
2022-08-24T20:20:07.692Z,100338.36
2022-08-24T20:22:35.302Z,100341.58
2022-08-24T20:25:02.413Z,100334.42
2022-08-24T20:27:30.181Z,100333.40
2022-08-24T20:29:59.313Z,100338.15
2022-08-24T20:32:29.099Z,100339.77
2022-08-24T20:34:56.049Z,100343.60
2022-08-24T20:37:25.539Z,100346.54
2022-08-24T20:39:55.657Z,100346.51
2022-08-24T20:42:27.027Z,100351.98
2022-08-24T20:44:55.032Z,100349.73
2022-08-24T20:47:22.461Z,100348.29
2022-08-24T20:49:49.507Z,100348.27
2022-08-24T20:52:16.561Z,100347.29
2022-08-24T20:54:43.508Z,100347.11
2022-08-24T20:57:12.813Z,100347.70
2022-08-24T20:59:39.866Z,100349.24
2022-08-24T21:02:06.817Z,100348.26
2022-08-24T21:04:33.873Z,100350.09
2022-08-24T21:07:00.819Z,100348.67
2022-08-24T21:09:27.870Z,100345.61
2022-08-24T21:11:54.822Z,100350.11
2022-08-24T21:14:21.832Z,100349.25
2022-08-24T21:16:48.917Z,100351.48
2022-08-24T21:19:19.141Z,100352.96
2022-08-24T21:21:47.228Z,100351.94
2022-08-24T21:24:15.801Z,100352.80
2022-08-24T21:26:42.853Z,100348.20
2022-08-24T21:29:11.028Z,100349.27
2022-08-24T21:31:38.247Z,100345.27
2022-08-24T21:34:24.306Z,100346.83
2022-08-24T21:36:52.963Z,100341.79
2022-08-24T21:39:21.793Z,100338.60
2022-08-24T21:41:48.903Z,100339.05
2022-08-24T21:44:16.877Z,100334.95
2022-08-24T21:46:43.900Z,100332.56
2022-08-24T21:49:12.090Z,100330.09
2022-08-24T21:51:40.507Z,100330.30
2022-08-24T21:54:07.444Z,100330.20
2022-08-24T21:56:34.394Z,100325.63
2022-08-24T21:59:01.552Z,100324.45
2022-08-24T22:01:29.566Z,100321.70
2022-08-24T22:03:58.659Z,100320.59
2022-08-24T22:06:30.519Z,100319.98
2022-08-24T22:08:58.656Z,100324.31
2022-08-24T22:11:25.623Z,100321.60
2022-08-24T22:13:53.618Z,100318.53
2022-08-24T22:16:22.046Z,100316.02
2022-08-24T22:18:49.435Z,100312.46
2022-08-24T22:21:18.594Z,100313.04
2022-08-24T22:23:45.565Z,100315.27
2022-08-24T22:26:12.515Z,100316.20
2022-08-24T22:28:41.513Z,100317.70
2022-08-24T22:31:17.757Z,100316.73
2022-08-24T22:33:44.829Z,100314.29
2022-08-24T22:36:14.438Z,100315.13
2022-08-24T22:38:41.799Z,100314.10
2022-08-24T22:41:09.056Z,100314.19
2022-08-24T22:43:55.456Z,100314.79
2022-08-24T22:46:23.242Z,100312.15
2022-08-24T22:48:50.382Z,100311.52
2022-08-24T22:51:17.487Z,100312.87
2022-08-24T22:53:44.928Z,100310.08
2022-08-24T22:56:22.593Z,100313.04
2022-08-24T22:58:49.846Z,100308.86
2022-08-24T23:01:26.763Z,100307.38
2022-08-24T23:03:54.580Z,100306.83
2022-08-24T23:06:21.645Z,100306.99
2022-08-24T23:08:48.907Z,100304.75
2022-08-24T23:11:16.087Z,100306.30
2022-08-24T23:13:43.008Z,100306.55
2022-08-24T23:16:12.409Z,100302.50
2022-08-24T23:18:58.918Z,100305.39
2022-08-24T23:21:26.281Z,100303.05
2022-08-24T23:23:55.246Z,100299.10
2022-08-24T23:26:22.942Z,100298.42
2022-08-24T23:28:50.367Z,100298.10
2022-08-24T23:31:19.175Z,100296.20
2022-08-24T23:33:46.346Z,100297.69
2022-08-24T23:36:18.862Z,100295.41
2022-08-24T23:38:45.776Z,100295.15
2022-08-24T23:41:15.976Z,100291.02
2022-08-24T23:43:43.903Z,100290.03
2022-08-24T23:46:11.602Z,100286.49
2022-08-24T23:48:39.140Z,100285.84
2022-08-24T23:51:10.975Z,100284.44
2022-08-24T23:53:38.879Z,100282.82
2022-08-24T23:56:12.282Z,100281.98
2022-08-24T23:58:41.142Z,100280.45
